createdAt,value
2022-11-27T00:01:34.270Z,101640.22
2022-11-27T00:04:01.786Z,101644.88
2022-11-27T00:06:30.141Z,101642.28
2022-11-27T00:09:00.203Z,101632.28
2022-11-27T00:11:30.272Z,101639.81
2022-11-27T00:13:57.676Z,101637.16
2022-11-27T00:16:26.436Z,101634.19
2022-11-27T00:18:54.155Z,101636.75
2022-11-27T00:21:28.578Z,101637.34
2022-11-27T00:23:58.286Z,101631.06
2022-11-27T00:26:26.189Z,101637.97
2022-11-27T00:28:53.298Z,101640.03
2022-11-27T00:31:27.256Z,101639.09
2022-11-27T00:34:03.289Z,101628.97
2022-11-27T00:36:33.357Z,101635.91
2022-11-27T00:39:01.377Z,101652.59
2022-11-27T00:41:30.349Z,101640.88
2022-11-27T00:43:58.022Z,101639.94
2022-11-27T00:46:29.679Z,101633.19
2022-11-27T00:49:03.225Z,101640.72
2022-11-27T00:51:30.994Z,101632.28
2022-11-27T00:53:58.613Z,101632.22
2022-11-27T00:56:43.725Z,101626.13
2022-11-27T00:59:12.169Z,101626.88
2022-11-27T01:01:43.101Z,101628.94
2022-11-27T01:04:15.913Z,101625.63
2022-11-27T01:06:44.617Z,101624.38
2022-11-27T01:09:13.653Z,101628.59
2022-11-27T01:11:41.817Z,101627.38
2022-11-27T01:14:18.023Z,101626.84
2022-11-27T01:16:45.813Z,101634.09
2022-11-27T01:19:14.309Z,101634.06
2022-11-27T01:21:42.299Z,101620.81
2022-11-27T01:24:12.135Z,101634.88
2022-11-27T01:26:39.267Z,101637.91
2022-11-27T01:29:06.356Z,101639.03
2022-11-27T01:31:35.033Z,101626.66
2022-11-27T01:34:08.865Z,101632.16
2022-11-27T01:36:36.330Z,101622.44
2022-11-27T01:39:04.458Z,101638.84
2022-11-27T01:41:39.961Z,101630.53
2022-11-27T01:44:25.220Z,101648.03
2022-11-27T01:47:01.866Z,101631.47
2022-11-27T01:49:46.322Z,101633.53
2022-11-27T01:52:32.063Z,101633.00
2022-11-27T01:55:35.733Z,101638.28
2022-11-27T01:58:13.669Z,101644.31
2022-11-27T02:00:40.802Z,101645.66
2022-11-27T02:03:07.792Z,101646.03
2022-11-27T02:05:34.930Z,101654.88
2022-11-27T02:08:11.847Z,101653.38
2022-11-27T02:11:00.812Z,101656.75
2022-11-27T02:13:48.925Z,101663.25
2022-11-27T02:16:31.697Z,101661.97
2022-11-27T02:19:23.615Z,101663.72
2022-11-27T02:22:02.092Z,101653.13
2022-11-27T02:25:13.729Z,101661.28
2022-11-27T02:27:46.247Z,101664.78
2022-11-27T02:30:14.139Z,101665.19
2022-11-27T02:33:04.461Z,101662.13
2022-11-27T02:35:58.929Z,101669.06
2022-11-27T02:38:38.155Z,101658.31
2022-11-27T02:41:21.709Z,101660.78
2022-11-27T02:43:52.317Z,101658.16
2022-11-27T02:46:20.856Z,101658.91
2022-11-27T02:48:57.013Z,101665.50
2022-11-27T02:51:31.309Z,101658.88
2022-11-27T02:54:03.231Z,101665.19
2022-11-27T02:56:33.810Z,101666.75
2022-11-27T02:59:06.455Z,101667.09
2022-11-27T03:01:40.934Z,101659.03
2022-11-27T03:04:14.340Z,101663.72
2022-11-27T03:06:50.295Z,101657.69
2022-11-27T03:09:33.103Z,101653.25
2022-11-27T03:12:00.356Z,101657.97
2022-11-27T03:14:27.394Z,101654.31
2022-11-27T03:17:12.514Z,101659.88
2022-11-27T03:20:20.683Z,101666.97
2022-11-27T03:22:47.845Z,101664.66
2022-11-27T03:25:16.332Z,101660.88
2022-11-27T03:27:59.095Z,101662.72
2022-11-27T03:30:26.155Z,101657.09
2022-11-27T03:32:53.390Z,101664.38
2022-11-27T03:35:25.214Z,101670.28
2022-11-27T03:37:54.641Z,101669.78
2022-11-27T03:40:45.129Z,101670.59
2022-11-27T03:43:23.754Z,101663.00
2022-11-27T03:46:04.519Z,101669.28
2022-11-27T03:49:07.226Z,101661.72
2022-11-27T03:51:52.943Z,101654.72
2022-11-27T03:54:38.680Z,101657.06
2022-11-27T03:57:33.880Z,101660.66
2022-11-27T04:00:08.266Z,101655.16
2022-11-27T04:02:50.075Z,101651.66
2022-11-27T04:05:18.263Z,101668.53
2022-11-27T04:07:45.289Z,101672.47
2022-11-27T04:10:13.819Z,101664.31
2022-11-27T04:12:42.837Z,101660.94
2022-11-27T04:15:10.421Z,101668.09
2022-11-27T04:17:37.404Z,101660.94
2022-11-27T04:20:06.238Z,101660.59
2022-11-27T04:22:33.241Z,101662.63
2022-11-27T04:25:00.219Z,101664.25
2022-11-27T04:27:27.187Z,101670.69
2022-11-27T04:29:54.151Z,101664.72
2022-11-27T04:32:21.095Z,101660.78
2022-11-27T04:34:48.028Z,101651.78
2022-11-27T04:37:14.958Z,101660.41
2022-11-27T04:39:41.924Z,101663.13
2022-11-27T04:42:08.865Z,101670.78
2022-11-27T04:44:35.787Z,101662.81
2022-11-27T04:47:03.022Z,101667.91
2022-11-27T04:49:30.189Z,101664.31
2022-11-27T04:51:57.149Z,101667.81
2022-11-27T04:54:24.285Z,101665.97
2022-11-27T04:56:51.227Z,101660.94
2022-11-27T04:59:18.256Z,101648.38
2022-11-27T05:01:45.223Z,101661.72
2022-11-27T05:04:12.157Z,101663.94
2022-11-27T05:06:39.097Z,101661.19
2022-11-27T05:09:06.190Z,101659.94
2022-11-27T05:11:33.288Z,101656.09
2022-11-27T05:14:15.256Z,101652.31
2022-11-27T05:16:53.198Z,101657.25
2022-11-27T05:19:22.992Z,101665.25
2022-11-27T05:21:51.811Z,101653.78
2022-11-27T05:24:21.712Z,101660.66
2022-11-27T05:26:49.586Z,101651.59
2022-11-27T05:29:17.084Z,101651.22
2022-11-27T05:31:44.590Z,101653.53
2022-11-27T05:34:12.013Z,101645.56
2022-11-27T05:36:39.373Z,101647.81
2022-11-27T05:39:08.572Z,101652.31
2022-11-27T05:41:37.563Z,101642.31
2022-11-27T05:44:05.142Z,101653.13
2022-11-27T05:46:33.168Z,101644.91
2022-11-27T05:49:00.311Z,101652.97
2022-11-27T05:51:27.277Z,101646.44
2022-11-27T05:53:54.323Z,101645.19
2022-11-27T05:56:21.327Z,101640.81
2022-11-27T05:58:48.951Z,101653.19
2022-11-27T06:01:18.819Z,101643.41
2022-11-27T06:03:45.851Z,101647.56
2022-11-27T06:06:17.913Z,101643.25
2022-11-27T06:08:46.515Z,101636.44
2022-11-27T06:11:20.416Z,101633.88
2022-11-27T06:13:49.216Z,101633.66
2022-11-27T06:16:20.769Z,101635.25
2022-11-27T06:18:53.162Z,101635.59
2022-11-27T06:21:21.411Z,101636.78
2022-11-27T06:23:48.718Z,101638.53
2022-11-27T06:26:20.340Z,101631.28
2022-11-27T06:28:48.628Z,101636.75
2022-11-27T06:31:19.209Z,101642.31
2022-11-27T06:33:51.678Z,101644.59
2022-11-27T06:36:19.661Z,101643.59
2022-11-27T06:38:47.263Z,101649.75
2022-11-27T06:41:21.395Z,101653.78
2022-11-27T06:43:48.737Z,101651.78
2022-11-27T06:46:19.143Z,101647.84
2022-11-27T06:48:49.122Z,101653.19
2022-11-27T06:51:20.196Z,101651.94
2022-11-27T06:53:47.460Z,101647.56
2022-11-27T06:56:18.536Z,101649.91
2022-11-27T06:58:47.082Z,101650.69
2022-11-27T07:01:17.051Z,101656.50
2022-11-27T07:03:44.915Z,101653.66
2022-11-27T07:06:18.027Z,101652.78
2022-11-27T07:08:45.180Z,101647.81
2022-11-27T07:11:25.275Z,101647.13
2022-11-27T07:13:55.979Z,101645.28
2022-11-27T07:16:23.820Z,101630.16
2022-11-27T07:18:58.636Z,101637.88
2022-11-27T07:21:26.403Z,101637.59
2022-11-27T07:23:53.971Z,101640.41
2022-11-27T07:26:26.179Z,101626.44
2022-11-27T07:28:53.775Z,101638.06
2022-11-27T07:31:28.871Z,101638.78
2022-11-27T07:33:57.341Z,101632.44
2022-11-27T07:36:30.631Z,101634.50
2022-11-27T07:38:58.276Z,101635.34
2022-11-27T07:41:30.586Z,101635.97
2022-11-27T07:44:00.752Z,101637.81
2022-11-27T07:46:27.875Z,101637.31
2022-11-27T07:48:54.812Z,101647.41
2022-11-27T07:51:22.772Z,101638.28
2022-11-27T07:53:52.038Z,101641.47
2022-11-27T07:56:19.700Z,101641.19
2022-11-27T07:58:46.907Z,101643.78
2022-11-27T08:01:17.540Z,101647.88
2022-11-27T08:03:46.630Z,101637.13
2022-11-27T08:06:25.673Z,101641.75
2022-11-27T08:08:55.936Z,101644.72
2022-11-27T08:11:35.489Z,101647.09
2022-11-27T08:14:06.564Z,101646.47
2022-11-27T08:16:35.457Z,101643.31
2022-11-27T08:19:02.972Z,101646.59
2022-11-27T08:21:32.626Z,101636.97
2022-11-27T08:23:59.653Z,101644.91
2022-11-27T08:26:29.627Z,101645.84
2022-11-27T08:28:57.383Z,101636.56
2022-11-27T08:31:24.657Z,101640.09
2022-11-27T08:33:51.789Z,101643.25
2022-11-27T08:36:18.864Z,101639.59
2022-11-27T08:38:47.079Z,101649.47
2022-11-27T08:41:14.026Z,101638.25
2022-11-27T08:43:41.035Z,101643.88
2022-11-27T08:46:08.279Z,101646.09
2022-11-27T08:48:35.847Z,101648.31
2022-11-27T08:51:08.803Z,101652.09
2022-11-27T08:53:37.765Z,101654.72
2022-11-27T08:56:10.497Z,101654.72
2022-11-27T08:58:37.542Z,101650.44
2022-11-27T09:01:10.463Z,101649.66
2022-11-27T09:03:37.729Z,101647.53
2022-11-27T09:06:09.142Z,101647.25
2022-11-27T09:08:36.171Z,101645.94
2022-11-27T09:11:04.685Z,101658.59
2022-11-27T09:13:32.753Z,101660.53
2022-11-27T09:15:59.737Z,101661.38
2022-11-27T09:18:26.734Z,101662.00
2022-11-27T09:20:59.575Z,101659.16
2022-11-27T09:23:26.563Z,101655.09
2022-11-27T09:25:53.642Z,101657.31
2022-11-27T09:28:21.318Z,101663.31
2022-11-27T09:30:48.282Z,101665.16
2022-11-27T09:33:16.143Z,101668.75
2022-11-27T09:35:43.165Z,101665.66
2022-11-27T09:38:10.223Z,101666.03
2022-11-27T09:40:37.328Z,101656.47
2022-11-27T09:43:10.200Z,101653.75
2022-11-27T09:45:46.190Z,101652.53
2022-11-27T09:48:21.295Z,101638.16
2022-11-27T09:50:51.921Z,101649.28
2022-11-27T09:53:32.821Z,101648.63
2022-11-27T09:56:06.995Z,101638.44
2022-11-27T09:58:56.379Z,101643.25
2022-11-27T10:01:42.012Z,101646.91
2022-11-27T10:04:16.548Z,101643.38
2022-11-27T10:07:11.143Z,101639.94
2022-11-27T10:09:56.694Z,101629.59
2022-11-27T10:13:20.660Z,101634.06
2022-11-27T10:16:15.397Z,101635.84
2022-11-27T10:18:55.782Z,101616.03
2022-11-27T10:21:31.613Z,101629.31
2022-11-27T10:24:46.021Z,101620.94
2022-11-27T10:27:25.467Z,101618.28
2022-11-27T10:29:55.834Z,101616.06
2022-11-27T10:35:26.449Z,101614.66
2022-11-27T10:38:14.879Z,101617.19
2022-11-27T10:41:18.682Z,101618.91
2022-11-27T10:44:06.178Z,101612.13
2022-11-27T10:46:37.696Z,101613.44
2022-11-27T10:49:04.669Z,101613.56
2022-11-27T10:51:37.096Z,101609.22
2022-11-27T10:54:07.261Z,101611.13
2022-11-27T10:57:21.440Z,101616.50
2022-11-27T11:00:25.656Z,101613.41
2022-11-27T11:03:04.976Z,101610.91
2022-11-27T11:06:17.990Z,101610.38
2022-11-27T11:08:21.555Z,101594.25
2022-11-27T11:11:05.142Z,101605.59
2022-11-27T11:13:47.148Z,101602.28
2022-11-27T11:16:24.404Z,101609.38
2022-11-27T11:18:54.598Z,101602.31
2022-11-27T11:21:31.276Z,101604.09
2022-11-27T11:24:12.033Z,101601.50
2022-11-27T11:26:45.018Z,101596.28
2022-11-27T11:29:36.308Z,101593.63
2022-11-27T11:32:21.503Z,101599.59
2022-11-27T11:35:01.791Z,101599.13
2022-11-27T11:37:35.885Z,101598.34
2022-11-27T11:40:27.404Z,101600.19
2022-11-27T11:42:58.900Z,101591.09
2022-11-27T11:45:32.300Z,101600.19
2022-11-27T11:48:23.391Z,101594.34
2022-11-27T11:50:59.795Z,101591.41
2022-11-27T11:53:38.711Z,101589.59
2022-11-27T11:56:32.547Z,101587.53
2022-11-27T11:59:24.551Z,101589.38
2022-11-27T12:02:30.865Z,101588.16
2022-11-27T12:05:18.721Z,101593.59
2022-11-27T12:08:12.560Z,101594.19
2022-11-27T12:11:16.040Z,101578.38
2022-11-27T12:14:18.550Z,101578.13
2022-11-27T12:16:56.238Z,101576.19
2022-11-27T12:20:01.952Z,101573.31
2022-11-27T12:22:40.217Z,101576.28
2022-11-27T12:25:37.216Z,101569.91
2022-11-27T12:28:59.299Z,101573.78
2022-11-27T12:32:02.750Z,101571.84
2022-11-27T12:34:57.728Z,101579.38
2022-11-27T12:37:49.197Z,101578.47
2022-11-27T12:40:56.752Z,101580.94
2022-11-27T12:43:30.772Z,101567.84
2022-11-27T12:46:24.376Z,101575.69
2022-11-27T12:49:06.101Z,101569.91
2022-11-27T12:51:51.017Z,101571.34
2022-11-27T12:54:58.979Z,101560.09
2022-11-27T12:57:51.668Z,101558.31
2022-11-27T13:00:25.373Z,101563.41
2022-11-27T13:03:36.585Z,101558.84
2022-11-27T13:06:27.331Z,101565.31
2022-11-27T13:09:07.749Z,101561.03
2022-11-27T13:11:40.826Z,101557.38
2022-11-27T13:14:18.762Z,101553.53
2022-11-27T13:16:52.042Z,101561.38
2022-11-27T13:19:32.813Z,101568.00
2022-11-27T13:22:03.503Z,101549.66
2022-11-27T13:24:30.644Z,101551.25
2022-11-27T13:27:18.492Z,101548.63
2022-11-27T13:30:01.464Z,101552.22
2022-11-27T13:32:51.100Z,101558.13
2022-11-27T13:35:36.896Z,101560.22
2022-11-27T13:38:26.371Z,101563.72
2022-11-27T13:40:58.559Z,101562.22
2022-11-27T13:43:39.924Z,101562.22
2022-11-27T13:46:19.479Z,101571.34
2022-11-27T13:48:56.068Z,101569.31
2022-11-27T13:51:36.506Z,101561.81
2022-11-27T13:54:23.301Z,101553.28
2022-11-27T13:56:52.941Z,101554.56
2022-11-27T13:59:24.400Z,101559.97
2022-11-27T14:02:08.004Z,101549.97
2022-11-27T14:04:36.213Z,101545.50
2022-11-27T14:07:11.244Z,101539.59
2022-11-27T14:09:54.619Z,101542.56
2022-11-27T14:12:25.682Z,101552.22
2022-11-27T14:15:23.422Z,101545.16
2022-11-27T14:17:53.919Z,101546.88
2022-11-27T14:20:32.316Z,101543.53
2022-11-27T14:23:11.921Z,101543.31
2022-11-27T14:25:40.999Z,101552.56
2022-11-27T14:28:26.401Z,101550.38
2022-11-27T14:30:57.406Z,101543.91
2022-11-27T14:33:31.207Z,101539.06
2022-11-27T14:36:07.937Z,101545.09
2022-11-27T14:38:35.694Z,101543.88
2022-11-27T14:41:18.671Z,101540.84
2022-11-27T14:43:45.681Z,101539.44
2022-11-27T14:46:19.456Z,101540.06
2022-11-27T14:48:58.758Z,101550.03
2022-11-27T14:51:32.855Z,101546.59
2022-11-27T14:54:13.416Z,101537.53
2022-11-27T14:56:43.290Z,101533.25
2022-11-27T14:59:20.044Z,101530.25
2022-11-27T15:02:16.909Z,101529.34
2022-11-27T15:04:46.767Z,101522.47
2022-11-27T15:07:21.728Z,101524.88
2022-11-27T15:09:52.443Z,101515.41
2022-11-27T15:12:37.102Z,101526.53
2022-11-27T15:15:11.749Z,101524.97
2022-11-27T15:17:40.256Z,101517.44
2022-11-27T15:20:23.593Z,101519.56
2022-11-27T15:22:56.073Z,101520.47
2022-11-27T15:25:39.092Z,101522.06
2022-11-27T15:28:30.218Z,101526.28
2022-11-27T15:30:57.937Z,101532.44
2022-11-27T15:33:30.891Z,101517.22
2022-11-27T15:36:24.015Z,101526.63
2022-11-27T15:38:51.696Z,101527.41
2022-11-27T15:41:30.367Z,101523.84
2022-11-27T15:43:57.430Z,101526.06
2022-11-27T15:46:34.309Z,101523.44
2022-11-27T15:49:01.365Z,101523.16
2022-11-27T15:51:29.234Z,101532.16
2022-11-27T15:53:56.147Z,101529.78
2022-11-27T15:56:23.102Z,101524.13
2022-11-27T15:58:50.048Z,101527.97
2022-11-27T16:01:17.124Z,101531.63
2022-11-27T16:03:44.546Z,101530.69
2022-11-27T16:06:11.513Z,101521.53
2022-11-27T16:08:38.641Z,101529.44
2022-11-27T16:11:11.473Z,101519.41
2022-11-27T16:13:38.520Z,101527.50
2022-11-27T16:16:08.811Z,101516.94
2022-11-27T16:18:36.738Z,101513.31
2022-11-27T16:21:09.841Z,101507.41
2022-11-27T16:23:38.798Z,101515.25
2022-11-27T16:26:06.277Z,101513.50
2022-11-27T16:28:34.577Z,101512.41
2022-11-27T16:31:06.718Z,101504.59
2022-11-27T16:33:33.699Z,101505.69
2022-11-27T16:36:16.406Z,101498.81
2022-11-27T16:38:44.159Z,101500.59
2022-11-27T16:41:18.675Z,101503.28
2022-11-27T16:43:48.829Z,101493.28
2022-11-27T16:46:28.116Z,101501.47
2022-11-27T16:48:57.218Z,101496.63
2022-11-27T16:51:28.559Z,101493.16
2022-11-27T16:53:57.609Z,101495.56
2022-11-27T16:56:28.052Z,101495.91
2022-11-27T16:59:02.295Z,101486.81
2022-11-27T17:01:35.947Z,101500.31
2022-11-27T17:04:07.167Z,101488.94
2022-11-27T17:06:39.573Z,101496.56
2022-11-27T17:09:08.418Z,101490.66
2022-11-27T17:11:41.064Z,101484.38
2022-11-27T17:14:09.302Z,101489.63
2022-11-27T17:16:41.371Z,101487.59
2022-11-27T17:19:13.136Z,101483.50
2022-11-27T17:21:41.694Z,101486.13
2022-11-27T17:24:15.433Z,101480.63
2022-11-27T17:26:43.743Z,101476.88
2022-11-27T17:29:19.364Z,101476.53
2022-11-27T17:31:46.413Z,101476.38
2022-11-27T17:34:16.061Z,101469.34
2022-11-27T17:36:45.102Z,101478.81
2022-11-27T17:39:14.776Z,101471.88
2022-11-27T17:41:44.858Z,101457.22
2022-11-27T17:44:12.553Z,101459.72
2022-11-27T17:46:40.202Z,101455.03
2022-11-27T17:49:08.480Z,101459.97
2022-11-27T17:51:37.024Z,101466.19
2022-11-27T17:54:06.000Z,101461.66
2022-11-27T17:56:34.678Z,101469.75
2022-11-27T17:59:01.649Z,101467.38
2022-11-27T18:01:30.432Z,101460.75
2022-11-27T18:04:04.198Z,101474.25
2022-11-27T18:06:32.905Z,101469.81
2022-11-27T18:09:00.276Z,101464.91
2022-11-27T18:11:31.073Z,101460.91
2022-11-27T18:13:58.412Z,101460.03
2022-11-27T18:16:32.704Z,101458.31
2022-11-27T18:19:04.507Z,101437.84
2022-11-27T18:21:31.607Z,101451.91
2022-11-27T18:29:34.789Z,101441.28
2022-11-27T18:32:01.825Z,101436.91
2022-11-27T18:34:28.967Z,101439.88
2022-11-27T18:36:59.392Z,101437.75
2022-11-27T18:39:27.604Z,101436.91
2022-11-27T18:41:54.820Z,101428.78
2022-11-27T18:44:21.789Z,101439.91
2022-11-27T18:46:48.783Z,101429.50
2022-11-27T18:49:15.891Z,101430.59
2022-11-27T18:51:42.829Z,101432.09
2022-11-27T18:54:09.861Z,101421.81
2022-11-27T18:56:37.597Z,101424.56
2022-11-27T18:59:06.528Z,101426.97
2022-11-27T19:01:41.293Z,101424.00
2022-11-27T19:04:10.499Z,101425.13
2022-11-27T19:06:39.259Z,101422.63
2022-11-27T19:09:06.667Z,101421.16
2022-11-27T19:11:34.974Z,101425.00
2022-11-27T19:14:02.622Z,101429.44
2022-11-27T19:20:47.315Z,101423.44
2022-11-27T19:23:17.532Z,101424.31
2022-11-27T19:25:45.517Z,101428.53
2022-11-27T19:28:13.121Z,101421.97
2022-11-27T19:30:43.063Z,101429.38
2022-11-27T19:33:10.126Z,101432.56
2022-11-27T19:35:37.274Z,101429.50
2022-11-27T19:38:04.523Z,101425.75
2022-11-27T19:40:32.530Z,101427.34
2022-11-27T19:43:01.406Z,101427.69
2022-11-27T19:45:28.603Z,101435.78
2022-11-27T19:47:55.669Z,101418.72
2022-11-27T19:50:22.925Z,101425.69
2022-11-27T19:52:49.919Z,101419.56
2022-11-27T19:55:16.952Z,101423.63
2022-11-27T19:57:43.856Z,101423.91
2022-11-27T20:00:12.478Z,101430.63
2022-11-27T20:02:40.184Z,101425.31
2022-11-27T20:05:07.821Z,101425.22
2022-11-27T20:07:34.962Z,101426.34
2022-11-27T20:10:02.291Z,101423.63
2022-11-27T20:12:30.928Z,101427.34
2022-11-27T20:14:59.602Z,101423.41
2022-11-27T20:17:26.631Z,101425.75
2022-11-27T20:19:53.606Z,101423.47
2022-11-27T20:22:20.501Z,101420.66
2022-11-27T20:25:11.161Z,101416.13
2022-11-27T20:27:35.447Z,101421.03
2022-11-27T20:30:02.910Z,101418.72
2022-11-27T20:32:29.906Z,101424.56
2022-11-27T20:34:57.112Z,101426.91
2022-11-27T20:37:24.076Z,101420.09
2022-11-27T20:39:51.203Z,101416.25
2022-11-27T20:42:18.406Z,101417.81
2022-11-27T20:44:45.629Z,101423.50
2022-11-27T20:47:12.776Z,101408.59
2022-11-27T20:49:40.035Z,101401.78
2022-11-27T20:52:07.183Z,101416.50
2022-11-27T20:54:34.191Z,101416.34
2022-11-27T20:57:01.179Z,101417.16
2022-11-27T20:59:28.202Z,101411.56
2022-11-27T21:01:55.283Z,101419.84
2022-11-27T21:04:26.324Z,101415.56
2022-11-27T21:06:53.595Z,101416.34
2022-11-27T21:09:21.325Z,101417.81
2022-11-27T21:11:48.456Z,101408.81
2022-11-27T21:14:17.037Z,101408.59
2022-11-27T21:16:48.774Z,101411.91
2022-11-27T21:19:26.367Z,101407.94
2022-11-27T21:21:54.819Z,101411.31
2022-11-27T21:24:23.457Z,101411.22
2022-11-27T21:26:50.526Z,101408.69
2022-11-27T21:29:18.043Z,101408.47
2022-11-27T21:31:47.081Z,101405.34
2022-11-27T21:34:15.410Z,101402.72
2022-11-27T21:36:42.363Z,101412.84
2022-11-27T21:39:12.653Z,101404.94
2022-11-27T21:41:39.637Z,101400.53
2022-11-27T21:44:06.760Z,101408.81
2022-11-27T21:46:33.827Z,101412.47
2022-11-27T21:49:01.549Z,101406.44
2022-11-27T21:51:30.290Z,101407.91
2022-11-27T21:53:59.930Z,101401.53
2022-11-27T21:56:29.349Z,101405.00
2022-11-27T21:58:56.433Z,101396.91
2022-11-27T22:01:25.528Z,101405.97
2022-11-27T22:03:57.446Z,101397.72
2022-11-27T22:06:28.844Z,101402.13
2022-11-27T22:08:59.042Z,101403.63
2022-11-27T22:11:30.775Z,101397.00
2022-11-27T22:14:05.207Z,101398.94
2022-11-27T22:16:42.780Z,101379.03
2022-11-27T22:19:11.709Z,101389.66
2022-11-27T22:21:38.724Z,101396.00
2022-11-27T22:24:06.047Z,101392.28
2022-11-27T22:26:33.124Z,101391.94
2022-11-27T22:29:00.284Z,101395.59
2022-11-27T22:31:31.147Z,101384.28
2022-11-27T22:33:59.118Z,101387.69
2022-11-27T22:36:33.381Z,101377.66
2022-11-27T22:39:07.362Z,101386.78
2022-11-27T22:41:36.968Z,101378.84
2022-11-27T22:44:09.146Z,101374.97
2022-11-27T22:46:37.296Z,101376.78
2022-11-27T22:49:06.799Z,101373.38
2022-11-27T22:51:36.297Z,101368.59
2022-11-27T22:54:05.494Z,101373.28
2022-11-27T22:56:33.803Z,101362.56
2022-11-27T22:59:30.623Z,101361.69
2022-11-27T23:01:48.966Z,101365.09
2022-11-27T23:04:16.053Z,101356.31
2022-11-27T23:06:47.447Z,101352.13
2022-11-27T23:09:16.527Z,101355.16
2022-11-27T23:11:43.577Z,101357.53
2022-11-27T23:14:10.551Z,101341.06
2022-11-27T23:16:37.539Z,101349.47
2022-11-27T23:19:04.560Z,101350.72
2022-11-27T23:21:35.265Z,101355.69
2022-11-27T23:24:02.265Z,101354.81
2022-11-27T23:26:29.599Z,101358.03
2022-11-27T23:28:56.757Z,101351.72
2022-11-27T23:31:31.401Z,101352.25
2022-11-27T23:34:03.158Z,101356.81
2022-11-27T23:36:32.156Z,101356.09
2022-11-27T23:39:05.899Z,101359.06
2022-11-27T23:41:33.254Z,101354.91
2022-11-27T23:44:01.545Z,101356.44
2022-11-27T23:46:30.928Z,101352.66
2022-11-27T23:48:59.972Z,101354.16
2022-11-27T23:51:31.016Z,101351.59
2022-11-27T23:53:59.095Z,101353.84
2022-11-27T23:56:29.884Z,101354.53
2022-11-27T23:58:57.486Z,101348.63
